sensor_id;sensor_type;location;lat;lon;timestamp;temperature;humidity
7014;DHT22;3547;50.774;12.918;2023-07-31T00:00:47;12.90;1.00
7014;DHT22;3547;50.774;12.918;2023-07-31T00:03:13;12.90;1.00
7014;DHT22;3547;50.774;12.918;2023-07-31T00:05:39;12.90;1.00
7014;DHT22;3547;50.774;12.918;2023-07-31T00:08:05;12.90;1.00
7014;DHT22;3547;50.774;12.918;2023-07-31T00:10:32;12.90;1.00
7014;DHT22;3547;50.774;12.918;2023-07-31T00:12:59;12.90;1.00
7014;DHT22;3547;50.774;12.918;2023-07-31T00:15:25;12.90;1.00
7014;DHT22;3547;50.774;12.918;2023-07-31T00:17:51;12.90;1.00
7014;DHT22;3547;50.774;12.918;2023-07-31T00:20:17;12.90;1.00
7014;DHT22;3547;50.774;12.918;2023-07-31T00:22:44;12.90;1.00
7014;DHT22;3547;50.774;12.918;2023-07-31T00:25:10;12.90;1.00
7014;DHT22;3547;50.774;12.918;2023-07-31T00:27:36;12.90;1.00
7014;DHT22;3547;50.774;12.918;2023-07-31T00:30:03;12.90;1.00
7014;DHT22;3547;50.774;12.918;2023-07-31T00:32:30;13.00;1.00
7014;DHT22;3547;50.774;12.918;2023-07-31T00:34:56;13.00;1.00
7014;DHT22;3547;50.774;12.918;2023-07-31T00:37:22;13.00;1.00
7014;DHT22;3547;50.774;12.918;2023-07-31T00:39:48;13.00;1.00
7014;DHT22;3547;50.774;12.918;2023-07-31T00:42:14;13.10;1.00
7014;DHT22;3547;50.774;12.918;2023-07-31T00:44:40;13.10;1.00
7014;DHT22;3547;50.774;12.918;2023-07-31T00:47:06;13.20;1.00
7014;DHT22;3547;50.774;12.918;2023-07-31T00:49:33;13.20;1.00
7014;DHT22;3547;50.774;12.918;2023-07-31T00:51:59;13.20;1.00
7014;DHT22;3547;50.774;12.918;2023-07-31T00:54:25;13.30;1.00
7014;DHT22;3547;50.774;12.918;2023-07-31T00:56:53;13.30;1.00
7014;DHT22;3547;50.774;12.918;2023-07-31T00:59:20;13.30;1.00
7014;DHT22;3547;50.774;12.918;2023-07-31T01:01:46;13.40;1.00
7014;DHT22;3547;50.774;12.918;2023-07-31T01:08:08;13.50;1.00
7014;DHT22;3547;50.774;12.918;2023-07-31T01:10:50;13.60;1.00
7014;DHT22;3547;50.774;12.918;2023-07-31T01:13:18;13.60;1.00
7014;DHT22;3547;50.774;12.918;2023-07-31T01:15:44;13.70;1.00
7014;DHT22;3547;50.774;12.918;2023-07-31T01:18:10;13.80;1.00
7014;DHT22;3547;50.774;12.918;2023-07-31T01:27:23;13.90;1.00
7014;DHT22;3547;50.774;12.918;2023-07-31T01:30:11;14.00;1.00
7014;DHT22;3547;50.774;12.918;2023-07-31T01:32:43;14.10;1.00
7014;DHT22;3547;50.774;12.918;2023-07-31T01:35:10;14.20;1.00
7014;DHT22;3547;50.774;12.918;2023-07-31T01:37:36;14.30;1.00
7014;DHT22;3547;50.774;12.918;2023-07-31T01:40:03;14.40;1.00
7014;DHT22;3547;50.774;12.918;2023-07-31T01:42:30;14.40;1.00
7014;DHT22;3547;50.774;12.918;2023-07-31T01:44:56;14.50;1.00
7014;DHT22;3547;50.774;12.918;2023-07-31T01:47:22;14.50;1.00
7014;DHT22;3547;50.774;12.918;2023-07-31T01:49:49;14.50;1.00
7014;DHT22;3547;50.774;12.918;2023-07-31T01:52:15;14.50;1.00
7014;DHT22;3547;50.774;12.918;2023-07-31T01:54:44;14.50;1.00
7014;DHT22;3547;50.774;12.918;2023-07-31T01:57:11;14.60;1.00
7014;DHT22;3547;50.774;12.918;2023-07-31T01:59:37;14.60;1.00
7014;DHT22;3547;50.774;12.918;2023-07-31T02:02:03;14.70;1.00
7014;DHT22;3547;50.774;12.918;2023-07-31T02:04:29;14.70;1.00
7014;DHT22;3547;50.774;12.918;2023-07-31T02:06:55;14.70;1.00
7014;DHT22;3547;50.774;12.918;2023-07-31T02:09:21;14.70;1.00
7014;DHT22;3547;50.774;12.918;2023-07-31T02:11:47;14.70;1.00
7014;DHT22;3547;50.774;12.918;2023-07-31T02:14:13;14.70;1.00
7014;DHT22;3547;50.774;12.918;2023-07-31T02:16:40;14.70;1.00
7014;DHT22;3547;50.774;12.918;2023-07-31T02:19:06;14.70;1.00
7014;DHT22;3547;50.774;12.918;2023-07-31T02:21:32;14.70;1.00
7014;DHT22;3547;50.774;12.918;2023-07-31T02:23:58;14.70;1.00
7014;DHT22;3547;50.774;12.918;2023-07-31T02:26:24;14.70;1.00
7014;DHT22;3547;50.774;12.918;2023-07-31T02:28:50;14.60;1.00
7014;DHT22;3547;50.774;12.918;2023-07-31T02:31:16;14.60;1.00
7014;DHT22;3547;50.774;12.918;2023-07-31T02:33:42;14.60;1.00
7014;DHT22;3547;50.774;12.918;2023-07-31T02:36:08;14.60;1.00
7014;DHT22;3547;50.774;12.918;2023-07-31T02:38:34;14.50;1.00
7014;DHT22;3547;50.774;12.918;2023-07-31T02:41:00;14.50;1.00
7014;DHT22;3547;50.774;12.918;2023-07-31T02:43:27;14.50;1.00
7014;DHT22;3547;50.774;12.918;2023-07-31T02:45:53;14.50;1.00
7014;DHT22;3547;50.774;12.918;2023-07-31T02:48:19;14.40;1.00
7014;DHT22;3547;50.774;12.918;2023-07-31T02:50:46;14.40;1.00
7014;DHT22;3547;50.774;12.918;2023-07-31T02:53:13;14.40;1.00
7014;DHT22;3547;50.774;12.918;2023-07-31T02:55:40;14.40;1.00
7014;DHT22;3547;50.774;12.918;2023-07-31T02:58:06;14.40;1.00
7014;DHT22;3547;50.774;12.918;2023-07-31T03:03:55;14.30;1.00
7014;DHT22;3547;50.774;12.918;2023-07-31T03:06:21;14.30;1.00
7014;DHT22;3547;50.774;12.918;2023-07-31T03:08:47;14.30;1.00
7014;DHT22;3547;50.774;12.918;2023-07-31T03:11:13;14.30;1.00
7014;DHT22;3547;50.774;12.918;2023-07-31T03:13:40;14.30;1.00
7014;DHT22;3547;50.774;12.918;2023-07-31T03:16:06;14.30;1.00
7014;DHT22;3547;50.774;12.918;2023-07-31T03:18:32;14.20;1.00
7014;DHT22;3547;50.774;12.918;2023-07-31T03:24:20;14.20;1.00
7014;DHT22;3547;50.774;12.918;2023-07-31T03:26:46;14.20;1.00
7014;DHT22;3547;50.774;12.918;2023-07-31T03:29:13;14.20;1.00
7014;DHT22;3547;50.774;12.918;2023-07-31T03:31:39;14.20;1.00
7014;DHT22;3547;50.774;12.918;2023-07-31T03:34:05;14.20;1.00
7014;DHT22;3547;50.774;12.918;2023-07-31T03:36:31;14.20;1.00
7014;DHT22;3547;50.774;12.918;2023-07-31T03:38:58;14.20;1.00
7014;DHT22;3547;50.774;12.918;2023-07-31T03:41:25;14.20;1.00
7014;DHT22;3547;50.774;12.918;2023-07-31T03:43:51;14.20;1.00
7014;DHT22;3547;50.774;12.918;2023-07-31T03:46:18;14.20;1.00
7014;DHT22;3547;50.774;12.918;2023-07-31T03:48:44;14.20;1.00
7014;DHT22;3547;50.774;12.918;2023-07-31T03:51:10;14.20;1.00
7014;DHT22;3547;50.774;12.918;2023-07-31T03:53:36;14.20;1.00
7014;DHT22;3547;50.774;12.918;2023-07-31T03:56:02;14.20;1.00
7014;DHT22;3547;50.774;12.918;2023-07-31T04:01:52;14.20;1.00
7014;DHT22;3547;50.774;12.918;2023-07-31T04:04:19;14.20;1.00
7014;DHT22;3547;50.774;12.918;2023-07-31T04:06:46;14.10;1.00
7014;DHT22;3547;50.774;12.918;2023-07-31T04:09:12;14.10;1.00
7014;DHT22;3547;50.774;12.918;2023-07-31T04:11:38;14.10;1.00
7014;DHT22;3547;50.774;12.918;2023-07-31T04:14:05;14.10;1.00
7014;DHT22;3547;50.774;12.918;2023-07-31T04:16:41;14.10;1.00
7014;DHT22;3547;50.774;12.918;2023-07-31T04:19:07;14.10;1.00
7014;DHT22;3547;50.774;12.918;2023-07-31T04:21:34;14.10;1.00
7014;DHT22;3547;50.774;12.918;2023-07-31T04:24:01;14.10;1.00
7014;DHT22;3547;50.774;12.918;2023-07-31T04:26:27;14.10;1.00
7014;DHT22;3547;50.774;12.918;2023-07-31T04:28:53;14.20;1.00
7014;DHT22;3547;50.774;12.918;2023-07-31T04:31:19;14.20;1.00
7014;DHT22;3547;50.774;12.918;2023-07-31T04:33:45;14.20;1.00
7014;DHT22;3547;50.774;12.918;2023-07-31T04:36:18;14.30;1.00
7014;DHT22;3547;50.774;12.918;2023-07-31T04:38:48;14.30;1.00
7014;DHT22;3547;50.774;12.918;2023-07-31T04:41:14;14.30;1.00
7014;DHT22;3547;50.774;12.918;2023-07-31T04:43:40;14.30;1.00
7014;DHT22;3547;50.774;12.918;2023-07-31T04:46:06;14.30;1.00
7014;DHT22;3547;50.774;12.918;2023-07-31T04:48:33;14.30;1.00
7014;DHT22;3547;50.774;12.918;2023-07-31T04:50:59;14.30;1.00
7014;DHT22;3547;50.774;12.918;2023-07-31T04:53:25;14.40;1.00
7014;DHT22;3547;50.774;12.918;2023-07-31T04:55:52;14.40;1.00
7014;DHT22;3547;50.774;12.918;2023-07-31T04:58:28;14.40;1.00
7014;DHT22;3547;50.774;12.918;2023-07-31T05:00:56;14.40;1.00
7014;DHT22;3547;50.774;12.918;2023-07-31T05:03:26;14.50;1.00
7014;DHT22;3547;50.774;12.918;2023-07-31T05:05:54;14.60;1.00
7014;DHT22;3547;50.774;12.918;2023-07-31T05:08:21;14.60;1.00
7014;DHT22;3547;50.774;12.918;2023-07-31T05:10:47;14.60;1.00
7014;DHT22;3547;50.774;12.918;2023-07-31T05:13:13;14.70;1.00
7014;DHT22;3547;50.774;12.918;2023-07-31T05:15:41;14.70;1.00
7014;DHT22;3547;50.774;12.918;2023-07-31T05:18:07;14.70;1.00
7014;DHT22;3547;50.774;12.918;2023-07-31T05:20:33;14.70;1.00
7014;DHT22;3547;50.774;12.918;2023-07-31T05:22:59;14.70;1.00
7014;DHT22;3547;50.774;12.918;2023-07-31T05:25:29;14.70;1.00
7014;DHT22;3547;50.774;12.918;2023-07-31T05:27:56;14.70;1.00
7014;DHT22;3547;50.774;12.918;2023-07-31T05:30:26;14.70;1.00
7014;DHT22;3547;50.774;12.918;2023-07-31T05:32:52;14.60;1.00
7014;DHT22;3547;50.774;12.918;2023-07-31T05:35:19;14.70;1.00
7014;DHT22;3547;50.774;12.918;2023-07-31T05:37:48;14.70;1.00
7014;DHT22;3547;50.774;12.918;2023-07-31T05:40:17;14.70;1.00
7014;DHT22;3547;50.774;12.918;2023-07-31T05:42:44;14.70;1.00
7014;DHT22;3547;50.774;12.918;2023-07-31T05:45:10;14.70;1.00
7014;DHT22;3547;50.774;12.918;2023-07-31T05:47:37;14.70;1.00
7014;DHT22;3547;50.774;12.918;2023-07-31T05:50:03;14.70;1.00
7014;DHT22;3547;50.774;12.918;2023-07-31T05:52:29;14.70;1.00
7014;DHT22;3547;50.774;12.918;2023-07-31T05:54:55;14.70;1.00
7014;DHT22;3547;50.774;12.918;2023-07-31T05:57:27;14.70;1.00
7014;DHT22;3547;50.774;12.918;2023-07-31T05:59:53;14.70;1.00
7014;DHT22;3547;50.774;12.918;2023-07-31T06:02:20;14.70;1.00
7014;DHT22;3547;50.774;12.918;2023-07-31T06:04:46;14.80;1.00
7014;DHT22;3547;50.774;12.918;2023-07-31T06:07:12;14.80;1.00
7014;DHT22;3547;50.774;12.918;2023-07-31T06:09:38;14.90;1.00
7014;DHT22;3547;50.774;12.918;2023-07-31T06:12:05;14.90;1.00
7014;DHT22;3547;50.774;12.918;2023-07-31T06:14:31;15.00;1.00
7014;DHT22;3547;50.774;12.918;2023-07-31T06:16:57;15.00;1.00
7014;DHT22;3547;50.774;12.918;2023-07-31T06:19:23;15.10;1.00
7014;DHT22;3547;50.774;12.918;2023-07-31T06:21:52;15.10;1.00
7014;DHT22;3547;50.774;12.918;2023-07-31T06:24:18;15.10;1.00
7014;DHT22;3547;50.774;12.918;2023-07-31T06:26:46;15.20;1.00
7014;DHT22;3547;50.774;12.918;2023-07-31T06:29:12;15.20;1.00
7014;DHT22;3547;50.774;12.918;2023-07-31T06:31:38;15.20;1.00
7014;DHT22;3547;50.774;12.918;2023-07-31T06:34:06;15.30;1.00
7014;DHT22;3547;50.774;12.918;2023-07-31T06:36:32;15.40;1.00
7014;DHT22;3547;50.774;12.918;2023-07-31T06:38:58;15.40;1.00
7014;DHT22;3547;50.774;12.918;2023-07-31T06:41:25;15.50;1.00
7014;DHT22;3547;50.774;12.918;2023-07-31T06:43:53;15.60;1.00
7014;DHT22;3547;50.774;12.918;2023-07-31T06:46:22;15.60;1.00
7014;DHT22;3547;50.774;12.918;2023-07-31T06:48:48;15.70;1.00
7014;DHT22;3547;50.774;12.918;2023-07-31T06:51:15;15.70;1.00
7014;DHT22;3547;50.774;12.918;2023-07-31T06:54:00;15.70;1.00
7014;DHT22;3547;50.774;12.918;2023-07-31T06:56:26;15.90;1.00
7014;DHT22;3547;50.774;12.918;2023-07-31T06:58:56;15.90;1.00
7014;DHT22;3547;50.774;12.918;2023-07-31T07:01:24;15.90;1.00
7014;DHT22;3547;50.774;12.918;2023-07-31T07:04:04;15.90;1.00
7014;DHT22;3547;50.774;12.918;2023-07-31T07:06:31;16.10;1.00
7014;DHT22;3547;50.774;12.918;2023-07-31T07:08:57;16.10;1.00
7014;DHT22;3547;50.774;12.918;2023-07-31T07:11:26;16.20;1.00
7014;DHT22;3547;50.774;12.918;2023-07-31T07:13:53;16.30;1.00
7014;DHT22;3547;50.774;12.918;2023-07-31T07:16:19;16.30;1.00
7014;DHT22;3547;50.774;12.918;2023-07-31T07:18:48;16.40;1.00
7014;DHT22;3547;50.774;12.918;2023-07-31T07:21:18;16.40;1.00
7014;DHT22;3547;50.774;12.918;2023-07-31T07:23:44;16.40;1.00
7014;DHT22;3547;50.774;12.918;2023-07-31T07:26:11;16.30;1.00
7014;DHT22;3547;50.774;12.918;2023-07-31T07:28:37;16.30;1.00
7014;DHT22;3547;50.774;12.918;2023-07-31T07:31:03;16.30;1.00
7014;DHT22;3547;50.774;12.918;2023-07-31T07:33:30;16.30;1.00
7014;DHT22;3547;50.774;12.918;2023-07-31T07:36:00;16.40;1.00
7014;DHT22;3547;50.774;12.918;2023-07-31T07:38:26;16.40;1.00
7014;DHT22;3547;50.774;12.918;2023-07-31T07:40:54;16.50;1.00
7014;DHT22;3547;50.774;12.918;2023-07-31T07:43:21;16.50;1.00
7014;DHT22;3547;50.774;12.918;2023-07-31T07:45:47;16.60;1.00
7014;DHT22;3547;50.774;12.918;2023-07-31T07:48:15;16.70;1.00
7014;DHT22;3547;50.774;12.918;2023-07-31T07:50:44;16.80;1.00
7014;DHT22;3547;50.774;12.918;2023-07-31T07:53:11;17.00;1.00
7014;DHT22;3547;50.774;12.918;2023-07-31T07:55:37;17.10;1.00
7014;DHT22;3547;50.774;12.918;2023-07-31T07:58:03;17.10;1.00
7014;DHT22;3547;50.774;12.918;2023-07-31T08:00:30;17.10;1.00
7014;DHT22;3547;50.774;12.918;2023-07-31T08:02:56;17.10;1.00
7014;DHT22;3547;50.774;12.918;2023-07-31T08:05:24;17.20;1.00
7014;DHT22;3547;50.774;12.918;2023-07-31T08:07:50;17.10;1.00
7014;DHT22;3547;50.774;12.918;2023-07-31T08:10:22;17.10;1.00
7014;DHT22;3547;50.774;12.918;2023-07-31T08:12:48;17.00;1.00
7014;DHT22;3547;50.774;12.918;2023-07-31T08:15:19;17.00;1.00
7014;DHT22;3547;50.774;12.918;2023-07-31T08:17:45;16.90;1.00
7014;DHT22;3547;50.774;12.918;2023-07-31T08:20:15;16.90;1.00
7014;DHT22;3547;50.774;12.918;2023-07-31T08:22:45;16.80;1.00
7014;DHT22;3547;50.774;12.918;2023-07-31T08:25:16;16.80;1.00
7014;DHT22;3547;50.774;12.918;2023-07-31T08:27:43;16.80;1.00
7014;DHT22;3547;50.774;12.918;2023-07-31T08:30:12;16.80;1.00
7014;DHT22;3547;50.774;12.918;2023-07-31T08:32:38;16.80;1.00
7014;DHT22;3547;50.774;12.918;2023-07-31T08:35:05;16.70;1.00
7014;DHT22;3547;50.774;12.918;2023-07-31T08:37:31;16.90;1.00
7014;DHT22;3547;50.774;12.918;2023-07-31T08:39:57;16.90;1.00
7014;DHT22;3547;50.774;12.918;2023-07-31T08:42:24;16.90;1.00
7014;DHT22;3547;50.774;12.918;2023-07-31T08:44:51;17.00;1.00
7014;DHT22;3547;50.774;12.918;2023-07-31T08:47:19;16.90;1.00
7014;DHT22;3547;50.774;12.918;2023-07-31T08:49:46;16.90;1.00
7014;DHT22;3547;50.774;12.918;2023-07-31T08:52:14;17.00;1.00
7014;DHT22;3547;50.774;12.918;2023-07-31T08:54:40;17.10;1.00
7014;DHT22;3547;50.774;12.918;2023-07-31T08:57:07;17.10;1.00
7014;DHT22;3547;50.774;12.918;2023-07-31T08:59:35;17.00;1.00
7014;DHT22;3547;50.774;12.918;2023-07-31T09:02:06;17.00;1.00
7014;DHT22;3547;50.774;12.918;2023-07-31T09:04:34;17.10;1.00
7014;DHT22;3547;50.774;12.918;2023-07-31T09:07:01;17.20;1.00
7014;DHT22;3547;50.774;12.918;2023-07-31T09:09:30;17.20;1.00
7014;DHT22;3547;50.774;12.918;2023-07-31T09:11:58;17.30;1.00
7014;DHT22;3547;50.774;12.918;2023-07-31T09:14:27;17.30;1.00
7014;DHT22;3547;50.774;12.918;2023-07-31T09:16:58;17.20;1.00
7014;DHT22;3547;50.774;12.918;2023-07-31T09:21:53;17.40;1.00
7014;DHT22;3547;50.774;12.918;2023-07-31T09:24:28;17.40;1.00
7014;DHT22;3547;50.774;12.918;2023-07-31T09:26:57;17.50;1.00
7014;DHT22;3547;50.774;12.918;2023-07-31T09:29:30;17.60;1.00
7014;DHT22;3547;50.774;12.918;2023-07-31T09:32:01;17.60;1.00
7014;DHT22;3547;50.774;12.918;2023-07-31T09:34:40;17.60;1.00
7014;DHT22;3547;50.774;12.918;2023-07-31T09:37:14;17.70;1.00
7014;DHT22;3547;50.774;12.918;2023-07-31T09:39:47;17.70;1.00
7014;DHT22;3547;50.774;12.918;2023-07-31T09:49:12;18.00;1.00
7014;DHT22;3547;50.774;12.918;2023-07-31T09:51:40;18.00;1.00
7014;DHT22;3547;50.774;12.918;2023-07-31T09:54:16;18.20;1.00
7014;DHT22;3547;50.774;12.918;2023-07-31T09:56:47;18.30;1.00
7014;DHT22;3547;50.774;12.918;2023-07-31T09:59:16;18.40;1.00
7014;DHT22;3547;50.774;12.918;2023-07-31T10:01:45;18.60;1.00
7014;DHT22;3547;50.774;12.918;2023-07-31T10:04:18;18.80;1.00
7014;DHT22;3547;50.774;12.918;2023-07-31T10:06:49;19.10;1.00
7014;DHT22;3547;50.774;12.918;2023-07-31T10:09:18;19.20;1.00
7014;DHT22;3547;50.774;12.918;2023-07-31T10:11:55;19.40;1.00
7014;DHT22;3547;50.774;12.918;2023-07-31T10:17:32;19.50;1.00
7014;DHT22;3547;50.774;12.918;2023-07-31T10:20:02;19.50;1.00
7014;DHT22;3547;50.774;12.918;2023-07-31T10:22:31;19.60;1.00
7014;DHT22;3547;50.774;12.918;2023-07-31T10:25:02;19.60;1.00
7014;DHT22;3547;50.774;12.918;2023-07-31T10:27:29;19.60;1.00
7014;DHT22;3547;50.774;12.918;2023-07-31T10:29:57;19.70;1.00
7014;DHT22;3547;50.774;12.918;2023-07-31T10:32:25;19.70;1.00
7014;DHT22;3547;50.774;12.918;2023-07-31T10:34:51;19.60;1.00
7014;DHT22;3547;50.774;12.918;2023-07-31T10:37:28;19.60;1.00
7014;DHT22;3547;50.774;12.918;2023-07-31T10:40:00;19.50;1.00
7014;DHT22;3547;50.774;12.918;2023-07-31T10:42:37;19.50;1.00
7014;DHT22;3547;50.774;12.918;2023-07-31T10:45:10;19.60;1.00
7014;DHT22;3547;50.774;12.918;2023-07-31T10:47:38;19.70;1.00
7014;DHT22;3547;50.774;12.918;2023-07-31T10:50:17;19.80;1.00
7014;DHT22;3547;50.774;12.918;2023-07-31T10:52:54;19.90;1.00
7014;DHT22;3547;50.774;12.918;2023-07-31T10:55:31;20.20;1.00
7014;DHT22;3547;50.774;12.918;2023-07-31T10:58:13;20.50;1.00
7014;DHT22;3547;50.774;12.918;2023-07-31T11:00:41;20.60;1.00
7014;DHT22;3547;50.774;12.918;2023-07-31T11:03:15;20.70;1.00
7014;DHT22;3547;50.774;12.918;2023-07-31T11:05:49;20.80;1.00
7014;DHT22;3547;50.774;12.918;2023-07-31T11:08:27;20.90;1.00
7014;DHT22;3547;50.774;12.918;2023-07-31T11:11:08;21.20;1.00
7014;DHT22;3547;50.774;12.918;2023-07-31T11:13:49;21.30;1.00
7014;DHT22;3547;50.774;12.918;2023-07-31T11:16:16;21.10;1.00
7014;DHT22;3547;50.774;12.918;2023-07-31T11:18:44;21.30;1.00
7014;DHT22;3547;50.774;12.918;2023-07-31T11:21:16;21.20;1.00
7014;DHT22;3547;50.774;12.918;2023-07-31T11:23:46;21.10;1.00
7014;DHT22;3547;50.774;12.918;2023-07-31T11:26:14;21.10;1.00
7014;DHT22;3547;50.774;12.918;2023-07-31T11:28:45;21.20;1.00
7014;DHT22;3547;50.774;12.918;2023-07-31T11:31:12;21.40;1.00
7014;DHT22;3547;50.774;12.918;2023-07-31T11:33:38;21.30;1.00
7014;DHT22;3547;50.774;12.918;2023-07-31T11:36:06;20.90;1.00
7014;DHT22;3547;50.774;12.918;2023-07-31T11:38:40;20.90;1.00
7014;DHT22;3547;50.774;12.918;2023-07-31T11:41:06;21.10;1.00
7014;DHT22;3547;50.774;12.918;2023-07-31T11:43:32;21.30;1.00
7014;DHT22;3547;50.774;12.918;2023-07-31T11:46:00;21.50;1.00
7014;DHT22;3547;50.774;12.918;2023-07-31T11:48:34;21.80;1.00
7014;DHT22;3547;50.774;12.918;2023-07-31T11:51:05;22.20;1.00
7014;DHT22;3547;50.774;12.918;2023-07-31T11:56:02;22.50;1.00
7014;DHT22;3547;50.774;12.918;2023-07-31T12:02:02;21.70;1.00
7014;DHT22;3547;50.774;12.918;2023-07-31T12:04:29;21.30;1.00
7014;DHT22;3547;50.774;12.918;2023-07-31T12:07:00;21.30;1.00
7014;DHT22;3547;50.774;12.918;2023-07-31T12:09:26;21.30;1.00
7014;DHT22;3547;50.774;12.918;2023-07-31T12:12:09;21.20;1.00
7014;DHT22;3547;50.774;12.918;2023-07-31T12:14:45;21.30;1.00
7014;DHT22;3547;50.774;12.918;2023-07-31T12:17:11;21.30;1.00
7014;DHT22;3547;50.774;12.918;2023-07-31T12:19:37;21.60;1.00
7014;DHT22;3547;50.774;12.918;2023-07-31T12:22:12;21.80;1.00
7014;DHT22;3547;50.774;12.918;2023-07-31T12:24:50;22.00;1.00
7014;DHT22;3547;50.774;12.918;2023-07-31T12:27:20;22.00;1.00
7014;DHT22;3547;50.774;12.918;2023-07-31T12:29:56;22.20;1.00
7014;DHT22;3547;50.774;12.918;2023-07-31T12:32:31;22.40;1.00
7014;DHT22;3547;50.774;12.918;2023-07-31T12:35:06;22.70;1.00
7014;DHT22;3547;50.774;12.918;2023-07-31T12:37:35;23.00;1.00
7014;DHT22;3547;50.774;12.918;2023-07-31T12:40:07;22.60;1.00
7014;DHT22;3547;50.774;12.918;2023-07-31T12:42:38;22.70;1.00
7014;DHT22;3547;50.774;12.918;2023-07-31T12:45:07;22.50;1.00
7014;DHT22;3547;50.774;12.918;2023-07-31T12:48:01;22.60;1.00
7014;DHT22;3547;50.774;12.918;2023-07-31T12:53:40;22.90;1.00
7014;DHT22;3547;50.774;12.918;2023-07-31T12:56:06;22.80;1.00
7014;DHT22;3547;50.774;12.918;2023-07-31T12:58:33;22.50;1.00
7014;DHT22;3547;50.774;12.918;2023-07-31T13:01:02;22.30;1.00
7014;DHT22;3547;50.774;12.918;2023-07-31T13:03:31;22.40;1.00
7014;DHT22;3547;50.774;12.918;2023-07-31T13:06:04;22.40;1.00
7014;DHT22;3547;50.774;12.918;2023-07-31T13:08:40;22.70;1.00
7014;DHT22;3547;50.774;12.918;2023-07-31T13:11:07;22.80;1.00
7014;DHT22;3547;50.774;12.918;2023-07-31T13:13:34;23.00;1.00
7014;DHT22;3547;50.774;12.918;2023-07-31T13:16:01;23.20;1.00
7014;DHT22;3547;50.774;12.918;2023-07-31T13:18:28;23.50;1.00
7014;DHT22;3547;50.774;12.918;2023-07-31T13:20:54;24.10;1.00
7014;DHT22;3547;50.774;12.918;2023-07-31T13:23:27;24.70;1.00
7014;DHT22;3547;50.774;12.918;2023-07-31T13:25:55;25.50;1.00
7014;DHT22;3547;50.774;12.918;2023-07-31T13:31:44;24.80;1.00
7014;DHT22;3547;50.774;12.918;2023-07-31T13:34:10;24.60;1.00
7014;DHT22;3547;50.774;12.918;2023-07-31T13:36:37;24.80;1.00
7014;DHT22;3547;50.774;12.918;2023-07-31T13:39:08;25.40;1.00
7014;DHT22;3547;50.774;12.918;2023-07-31T13:41:41;25.70;1.00
7014;DHT22;3547;50.774;12.918;2023-07-31T13:44:09;25.50;1.00
7014;DHT22;3547;50.774;12.918;2023-07-31T13:46:37;25.00;1.00
7014;DHT22;3547;50.774;12.918;2023-07-31T13:49:08;25.30;1.00
7014;DHT22;3547;50.774;12.918;2023-07-31T13:51:38;25.70;1.00
7014;DHT22;3547;50.774;12.918;2023-07-31T13:57:49;26.50;1.00
7014;DHT22;3547;50.774;12.918;2023-07-31T14:05:31;24.30;1.00
7014;DHT22;3547;50.774;12.918;2023-07-31T14:07:57;23.50;1.00
7014;DHT22;3547;50.774;12.918;2023-07-31T14:13:50;24.30;1.00
7014;DHT22;3547;50.774;12.918;2023-07-31T14:16:17;24.40;1.00
7014;DHT22;3547;50.774;12.918;2023-07-31T14:18:45;24.80;1.00
7014;DHT22;3547;50.774;12.918;2023-07-31T14:21:14;24.80;1.00
7014;DHT22;3547;50.774;12.918;2023-07-31T14:23:41;25.40;1.00
7014;DHT22;3547;50.774;12.918;2023-07-31T14:26:08;25.80;1.00
7014;DHT22;3547;50.774;12.918;2023-07-31T14:28:34;25.60;1.00
7014;DHT22;3547;50.774;12.918;2023-07-31T14:31:00;25.60;1.00
7014;DHT22;3547;50.774;12.918;2023-07-31T14:33:27;26.00;1.00
7014;DHT22;3547;50.774;12.918;2023-07-31T14:35:53;26.10;1.00
7014;DHT22;3547;50.774;12.918;2023-07-31T14:38:20;25.90;1.00
7014;DHT22;3547;50.774;12.918;2023-07-31T14:40:46;25.40;1.00
7014;DHT22;3547;50.774;12.918;2023-07-31T14:43:12;25.60;1.00
7014;DHT22;3547;50.774;12.918;2023-07-31T14:45:40;26.70;1.00
7014;DHT22;3547;50.774;12.918;2023-07-31T14:48:08;27.40;1.00
7014;DHT22;3547;50.774;12.918;2023-07-31T14:50:34;27.60;1.00
7014;DHT22;3547;50.774;12.918;2023-07-31T14:53:01;27.50;1.00
7014;DHT22;3547;50.774;12.918;2023-07-31T15:01:23;27.60;1.00
7014;DHT22;3547;50.774;12.918;2023-07-31T15:03:49;27.00;1.00
7014;DHT22;3547;50.774;12.918;2023-07-31T15:06:16;25.30;99.90
7014;DHT22;3547;50.774;12.918;2023-07-31T15:08:58;24.80;1.00
7014;DHT22;3547;50.774;12.918;2023-07-31T15:11:26;24.00;1.00
7014;DHT22;3547;50.774;12.918;2023-07-31T15:13:52;23.50;1.00
7014;DHT22;3547;50.774;12.918;2023-07-31T15:16:21;23.40;1.00
7014;DHT22;3547;50.774;12.918;2023-07-31T15:18:54;23.20;1.00
7014;DHT22;3547;50.774;12.918;2023-07-31T15:21:32;22.70;1.00
7014;DHT22;3547;50.774;12.918;2023-07-31T15:24:00;22.60;1.00
7014;DHT22;3547;50.774;12.918;2023-07-31T15:26:27;22.50;1.00
7014;DHT22;3547;50.774;12.918;2023-07-31T15:29:04;22.30;1.00
7014;DHT22;3547;50.774;12.918;2023-07-31T15:31:32;22.20;1.00
7014;DHT22;3547;50.774;12.918;2023-07-31T15:34:23;22.20;1.00
7014;DHT22;3547;50.774;12.918;2023-07-31T15:36:52;22.20;1.00
7014;DHT22;3547;50.774;12.918;2023-07-31T15:39:19;22.10;1.00
7014;DHT22;3547;50.774;12.918;2023-07-31T15:41:46;21.90;1.00
7014;DHT22;3547;50.774;12.918;2023-07-31T15:44:15;21.70;1.00
7014;DHT22;3547;50.774;12.918;2023-07-31T15:46:47;21.70;1.00
7014;DHT22;3547;50.774;12.918;2023-07-31T15:49:24;21.70;1.00
7014;DHT22;3547;50.774;12.918;2023-07-31T15:51:56;22.30;1.00
7014;DHT22;3547;50.774;12.918;2023-07-31T15:54:23;22.60;1.00
7014;DHT22;3547;50.774;12.918;2023-07-31T15:56:49;22.60;1.00
7014;DHT22;3547;50.774;12.918;2023-07-31T15:59:21;22.40;1.00
7014;DHT22;3547;50.774;12.918;2023-07-31T16:01:50;22.10;1.00
7014;DHT22;3547;50.774;12.918;2023-07-31T16:04:19;22.00;1.00
7014;DHT22;3547;50.774;12.918;2023-07-31T16:16:37;21.00;1.00
7014;DHT22;3547;50.774;12.918;2023-07-31T16:19:11;20.80;1.00
7014;DHT22;3547;50.774;12.918;2023-07-31T16:21:57;20.90;1.00
7014;DHT22;3547;50.774;12.918;2023-07-31T16:24:25;20.70;1.00
7014;DHT22;3547;50.774;12.918;2023-07-31T16:26:51;20.70;1.00
7014;DHT22;3547;50.774;12.918;2023-07-31T16:29:18;20.70;1.00
7014;DHT22;3547;50.774;12.918;2023-07-31T16:31:44;20.70;1.00
7014;DHT22;3547;50.774;12.918;2023-07-31T16:34:13;20.70;1.00
7014;DHT22;3547;50.774;12.918;2023-07-31T16:36:40;20.70;1.00
7014;DHT22;3547;50.774;12.918;2023-07-31T16:39:16;20.60;1.00
7014;DHT22;3547;50.774;12.918;2023-07-31T16:41:42;20.60;1.00
7014;DHT22;3547;50.774;12.918;2023-07-31T16:44:13;20.60;1.00
7014;DHT22;3547;50.774;12.918;2023-07-31T16:46:41;20.60;1.00
7014;DHT22;3547;50.774;12.918;2023-07-31T16:49:12;20.60;1.00
7014;DHT22;3547;50.774;12.918;2023-07-31T16:51:39;20.60;1.00
7014;DHT22;3547;50.774;12.918;2023-07-31T16:54:09;20.60;1.00
7014;DHT22;3547;50.774;12.918;2023-07-31T16:56:35;20.50;1.00
7014;DHT22;3547;50.774;12.918;2023-07-31T16:59:02;20.50;1.00
7014;DHT22;3547;50.774;12.918;2023-07-31T17:01:28;20.40;1.00
7014;DHT22;3547;50.774;12.918;2023-07-31T17:03:58;20.30;1.00
7014;DHT22;3547;50.774;12.918;2023-07-31T17:06:28;20.30;1.00
7014;DHT22;3547;50.774;12.918;2023-07-31T17:08:54;20.40;1.00
7014;DHT22;3547;50.774;12.918;2023-07-31T17:11:22;20.30;1.00
7014;DHT22;3547;50.774;12.918;2023-07-31T17:13:48;20.30;1.00
7014;DHT22;3547;50.774;12.918;2023-07-31T17:16:15;20.30;1.00
7014;DHT22;3547;50.774;12.918;2023-07-31T17:18:41;20.30;1.00
7014;DHT22;3547;50.774;12.918;2023-07-31T17:21:07;20.30;1.00
7014;DHT22;3547;50.774;12.918;2023-07-31T17:23:33;20.20;1.00